Monday, December 18, 2017, 5:55 AM EST
Back to Local

KSFZ, Pawtucket, North Central State Airport

Location: Smithfield, RI, United States Lat: 41.917
Local Time: 5:55 AM EST (10:55 GMT) Lon: -71.5
Time Zone: US/Eastern Elev: 439 ft

Show me the last for .
Show Coded

Time T Td Feel RH Dir Speed Gust Alt SLP Vis Weather Sky Remarks
2017-12-18 04:56 24 12 - 59 - Calm - 30.18 30.03 10 OVC023 None
2017-12-18 04:18 25 12 18 58 120° 6 - 30.17 - 10 BKN027 OVC050 None
2017-12-18 03:56 24 11 18 56 90° 5 - 30.18 30.03 10 BKN050 BKN060 OVC075 None
2017-12-18 02:56 24 13 - 61 - Calm - 30.20 30.05 10 BKN032 OVC060 None
2017-12-18 01:56 22 12 - 65 - Calm - 30.21 30.06 10 BKN070 None
2017-12-18 00:56 20 10 - 64 - Calm - 30.21 30.06 10 BKN075 6-hr Min Temp (1am): 19.0°F
6-hr Max Temp (1am): 23.0°F
2017-12-17 23:56 19 8 - 61 - Calm - 30.22 30.07 10 CLR 24-hr Min Temp (12am): 12.0°F
24-hr Max Temp (12am): 32.0°F
2017-12-17 22:56 20 8 - 59 - Calm - 30.23 30.08 10 CLR None
2017-12-17 21:56 21 8 - 56 - Calm - 30.24 30.09 10 CLR None
2017-12-17 20:56 22 8 - 54 - Calm - 30.25 30.11 10 CLR None
2017-12-17 19:56 22 8 17 54 300° 3 - 30.26 30.11 10 CLR None
2017-12-17 18:56 23 8 - 52 - Calm - 30.25 30.10 10 CLR 6-hr Min Temp (7pm): 23.0°F
6-hr Max Temp (7pm): 30.9°F
2017-12-17 17:56 24 8 18 49 270° 5 - 30.23 30.09 10 CLR None
2017-12-17 16:56 24 8 20 49 300° 3 - 30.23 30.09 10 CLR None
2017-12-17 15:56 26 8 19 45 280° 6 - 30.22 30.07 10 CLR None
2017-12-17 14:56 28 8 23 42 290° 5 - 30.20 30.06 10 CLR None
2017-12-17 13:56 29 8 22 40 300° 7 - 30.20 30.05 10 CLR None
2017-12-17 12:56 30 9 23 40 Variable 7 - 30.21 30.06 10 CLR 6-hr Min Temp (1pm): 12.0°F
6-hr Max Temp (1pm): 32.0°F
2017-12-17 11:56 31 7 22 35 300° 10 - 30.23 30.08 10 CLR None
2017-12-17 10:56 29 9 20 42 340° 9 - 30.24 30.10 10 SCT095 None
2017-12-17 09:56 26 11 17 52 330° 9 - 30.25 30.10 10 CLR None
2017-12-17 08:56 21 11 11 64 330° 8 - 30.25 30.10 10 CLR None
2017-12-17 07:56 16 10 6 76 320° 7 - 30.25 30.10 10 CLR None
2017-12-17 06:56 12 6 3 76 320° 6 - 30.24 30.10 10 CLR 6-hr Min Temp (7am): 12.0°F
6-hr Max Temp (7am): 17.1°F
2017-12-17 05:56 15 8 8 73 300° 5 - 30.24 30.09 10 CLR None

Support USWX by starting your Amazon purchase here.